sensor_id;sensor_type;location;lat;lon;timestamp;P1;durP1;ratioP1;P2;durP2;ratioP2
27684;SDS011;46113;50.130;8.526;2022-11-21T05:17:58;8.25;;;1.25;;
27684;SDS011;46113;50.130;8.526;2022-11-21T05:20:25;2.67;;;0.90;;
27684;SDS011;46113;50.130;8.526;2022-11-21T05:22:51;4.78;;;1.13;;
27684;SDS011;46113;50.130;8.526;2022-11-21T05:25:18;4.30;;;1.08;;
27684;SDS011;46113;50.130;8.526;2022-11-21T05:27:44;4.05;;;1.05;;
27684;SDS011;46113;50.130;8.526;2022-11-21T05:30:11;5.22;;;0.80;;
27684;SDS011;46113;50.130;8.526;2022-11-21T05:32:38;3.17;;;1.60;;
27684;SDS011;46113;50.130;8.526;2022-11-21T05:35:04;3.30;;;1.02;;
27684;SDS011;46113;50.130;8.526;2022-11-21T05:37:32;4.22;;;1.05;;
27684;SDS011;46113;50.130;8.526;2022-11-21T05:40:02;4.13;;;1.30;;
27684;SDS011;46113;50.130;8.526;2022-11-21T05:42:37;3.53;;;0.82;;
27684;SDS011;46113;50.130;8.526;2022-11-21T05:45:23;4.60;;;1.77;;
27684;SDS011;46113;50.130;8.526;2022-11-21T05:47:50;7.93;;;0.77;;
27684;SDS011;46113;50.130;8.526;2022-11-21T05:50:16;7.10;;;1.10;;
27684;SDS011;46113;50.130;8.526;2022-11-21T05:52:45;6.22;;;1.05;;
27684;SDS011;46113;50.130;8.526;2022-11-21T05:55:12;3.80;;;0.80;;
27684;SDS011;46113;50.130;8.526;2022-11-21T05:57:38;2.80;;;1.02;;
27684;SDS011;46113;50.130;8.526;2022-11-21T06:00:05;4.13;;;1.00;;
27684;SDS011;46113;50.130;8.526;2022-11-21T06:02:32;3.80;;;1.20;;
27684;SDS011;46113;50.130;8.526;2022-11-21T06:05:17;2.78;;;0.90;;
27684;SDS011;46113;50.130;8.526;2022-11-21T06:07:44;2.45;;;0.80;;
27684;SDS011;46113;50.130;8.526;2022-11-21T06:10:11;4.35;;;1.63;;
27684;SDS011;46113;50.130;8.526;2022-11-21T06:12:37;3.88;;;1.23;;
27684;SDS011;46113;50.130;8.526;2022-11-21T06:15:04;2.80;;;1.08;;
27684;SDS011;46113;50.130;8.526;2022-11-21T06:17:31;2.08;;;1.02;;
27684;SDS011;46113;50.130;8.526;2022-11-21T06:24:22;3.88;;;0.82;;
27684;SDS011;46113;50.130;8.526;2022-11-21T06:26:49;5.88;;;1.88;;
27684;SDS011;46113;50.130;8.526;2022-11-21T06:29:15;5.07;;;1.48;;
27684;SDS011;46113;50.130;8.526;2022-11-21T06:31:42;6.32;;;1.25;;
27684;SDS011;46113;50.130;8.526;2022-11-21T06:34:08;5.43;;;1.70;;
27684;SDS011;46113;50.130;8.526;2022-11-21T06:36:35;6.50;;;1.17;;
27684;SDS011;46113;50.130;8.526;2022-11-21T06:39:02;9.48;;;1.95;;
27684;SDS011;46113;50.130;8.526;2022-11-21T06:41:29;6.45;;;1.58;;
27684;SDS011;46113;50.130;8.526;2022-11-21T06:43:57;4.90;;;1.45;;
27684;SDS011;46113;50.130;8.526;2022-11-21T06:46:26;5.72;;;1.73;;
27684;SDS011;46113;50.130;8.526;2022-11-21T06:48:52;4.35;;;1.30;;
27684;SDS011;46113;50.130;8.526;2022-11-21T06:51:20;6.25;;;2.03;;
27684;SDS011;46113;50.130;8.526;2022-11-21T06:53:51;6.43;;;2.75;;
27684;SDS011;46113;50.130;8.526;2022-11-21T06:56:31;5.22;;;1.77;;
27684;SDS011;46113;50.130;8.526;2022-11-21T06:58:57;7.28;;;1.67;;
27684;SDS011;46113;50.130;8.526;2022-11-21T07:01:24;13.02;;;2.20;;
27684;SDS011;46113;50.130;8.526;2022-11-21T07:03:51;7.70;;;1.50;;
27684;SDS011;46113;50.130;8.526;2022-11-21T07:06:18;5.30;;;1.33;;
27684;SDS011;46113;50.130;8.526;2022-11-21T07:08:44;3.08;;;1.42;;
27684;SDS011;46113;50.130;8.526;2022-11-21T07:11:12;5.63;;;1.60;;
27684;SDS011;46113;50.130;8.526;2022-11-21T07:13:55;1.30;;;1.17;;
27684;SDS011;46113;50.130;8.526;2022-11-21T07:16:30;4.03;;;1.27;;
27684;SDS011;46113;50.130;8.526;2022-11-21T07:18:57;4.63;;;1.40;;
27684;SDS011;46113;50.130;8.526;2022-11-21T07:21:31;10.02;;;1.65;;
27684;SDS011;46113;50.130;8.526;2022-11-21T07:23:58;4.07;;;1.83;;
27684;SDS011;46113;50.130;8.526;2022-11-21T07:26:24;6.82;;;1.83;;
27684;SDS011;46113;50.130;8.526;2022-11-21T07:28:51;5.45;;;1.90;;
27684;SDS011;46113;50.130;8.526;2022-11-21T07:31:18;8.75;;;1.98;;
27684;SDS011;46113;50.130;8.526;2022-11-21T07:33:45;6.30;;;2.25;;
27684;SDS011;46113;50.130;8.526;2022-11-21T07:36:12;7.03;;;2.45;;
27684;SDS011;46113;50.130;8.526;2022-11-21T07:38:40;5.57;;;1.98;;
27684;SDS011;46113;50.130;8.526;2022-11-21T07:41:08;7.47;;;2.58;;
27684;SDS011;46113;50.130;8.526;2022-11-21T07:43:35;10.70;;;2.03;;
27684;SDS011;46113;50.130;8.526;2022-11-21T07:46:01;7.43;;;1.80;;
27684;SDS011;46113;50.130;8.526;2022-11-21T07:48:28;11.13;;;3.30;;
27684;SDS011;46113;50.130;8.526;2022-11-21T07:51:04;5.53;;;2.17;;
27684;SDS011;46113;50.130;8.526;2022-11-21T07:53:31;6.18;;;2.08;;
27684;SDS011;46113;50.130;8.526;2022-11-21T07:55:58;4.72;;;2.20;;
27684;SDS011;46113;50.130;8.526;2022-11-21T07:58:25;2.97;;;1.92;;
27684;SDS011;46113;50.130;8.526;2022-11-21T08:00:51;10.65;;;2.03;;
27684;SDS011;46113;50.130;8.526;2022-11-21T08:03:18;3.40;;;1.73;;
27684;SDS011;46113;50.130;8.526;2022-11-21T08:05:45;4.38;;;1.88;;
27684;SDS011;46113;50.130;8.526;2022-11-21T08:08:12;5.57;;;1.95;;
27684;SDS011;46113;50.130;8.526;2022-11-21T08:10:40;6.63;;;1.58;;
27684;SDS011;46113;50.130;8.526;2022-11-21T08:13:10;3.50;;;1.92;;
27684;SDS011;46113;50.130;8.526;2022-11-21T08:15:38;7.00;;;1.77;;
27684;SDS011;46113;50.130;8.526;2022-11-21T08:18:11;6.03;;;2.00;;
27684;SDS011;46113;50.130;8.526;2022-11-21T08:20:39;4.55;;;1.40;;
27684;SDS011;46113;50.130;8.526;2022-11-21T08:23:07;8.07;;;1.60;;
27684;SDS011;46113;50.130;8.526;2022-11-21T08:25:38;6.40;;;2.08;;
27684;SDS011;46113;50.130;8.526;2022-11-21T08:33:33;4.18;;;1.50;;
27684;SDS011;46113;50.130;8.526;2022-11-21T08:38:46;3.80;;;1.52;;
27684;SDS011;46113;50.130;8.526;2022-11-21T08:41:13;3.70;;;1.23;;
27684;SDS011;46113;50.130;8.526;2022-11-21T08:43:58;5.55;;;1.80;;
27684;SDS011;46113;50.130;8.526;2022-11-21T08:46:25;1.98;;;1.00;;
27684;SDS011;46113;50.130;8.526;2022-11-21T08:48:55;2.63;;;1.33;;
27684;SDS011;46113;50.130;8.526;2022-11-21T08:51:22;6.03;;;1.73;;
27684;SDS011;46113;50.130;8.526;2022-11-21T08:53:48;2.90;;;1.60;;
27684;SDS011;46113;50.130;8.526;2022-11-21T08:56:15;3.67;;;0.95;;
27684;SDS011;46113;50.130;8.526;2022-11-21T08:58:45;7.65;;;1.70;;
27684;SDS011;46113;50.130;8.526;2022-11-21T09:01:11;8.07;;;2.05;;
27684;SDS011;46113;50.130;8.526;2022-11-21T09:03:38;4.95;;;1.63;;
27684;SDS011;46113;50.130;8.526;2022-11-21T09:06:04;6.40;;;0.85;;
27684;SDS011;46113;50.130;8.526;2022-11-21T09:08:31;2.67;;;1.05;;
27684;SDS011;46113;50.130;8.526;2022-11-21T09:11:02;3.60;;;0.98;;
27684;SDS011;46113;50.130;8.526;2022-11-21T09:13:29;6.55;;;1.25;;
27684;SDS011;46113;50.130;8.526;2022-11-21T09:15:57;9.07;;;1.20;;
27684;SDS011;46113;50.130;8.526;2022-11-21T09:18:46;4.00;;;1.10;;
27684;SDS011;46113;50.130;8.526;2022-11-21T09:21:16;4.00;;;1.45;;
27684;SDS011;46113;50.130;8.526;2022-11-21T09:23:43;4.32;;;1.02;;
27684;SDS011;46113;50.130;8.526;2022-11-21T09:26:10;7.60;;;1.52;;
27684;SDS011;46113;50.130;8.526;2022-11-21T09:28:39;4.00;;;1.33;;
27684;SDS011;46113;50.130;8.526;2022-11-21T09:31:06;5.00;;;1.63;;
27684;SDS011;46113;50.130;8.526;2022-11-21T09:33:34;5.70;;;1.08;;
27684;SDS011;46113;50.130;8.526;2022-11-21T09:36:00;2.15;;;1.10;;
27684;SDS011;46113;50.130;8.526;2022-11-21T09:38:27;2.03;;;0.85;;
27684;SDS011;46113;50.130;8.526;2022-11-21T09:41:08;7.65;;;1.20;;
27684;SDS011;46113;50.130;8.526;2022-11-21T09:44:48;3.95;;;0.85;;
27684;SDS011;46113;50.130;8.526;2022-11-21T09:49:51;3.30;;;0.82;;
27684;SDS011;46113;50.130;8.526;2022-11-21T09:52:23;1.98;;;0.82;;
27684;SDS011;46113;50.130;8.526;2022-11-21T09:54:57;5.55;;;1.38;;
27684;SDS011;46113;50.130;8.526;2022-11-21T09:57:26;6.57;;;1.80;;
27684;SDS011;46113;50.130;8.526;2022-11-21T10:00:00;4.32;;;1.10;;
27684;SDS011;46113;50.130;8.526;2022-11-21T10:02:37;2.08;;;0.90;;
27684;SDS011;46113;50.130;8.526;2022-11-21T10:05:08;4.68;;;1.30;;
27684;SDS011;46113;50.130;8.526;2022-11-21T10:07:38;5.47;;;1.13;;
27684;SDS011;46113;50.130;8.526;2022-11-21T10:10:11;5.20;;;1.05;;
27684;SDS011;46113;50.130;8.526;2022-11-21T10:13:08;3.78;;;1.05;;
27684;SDS011;46113;50.130;8.526;2022-11-21T10:18:26;0.50;;;0.43;;
27684;SDS011;46113;50.130;8.526;2022-11-21T10:21:26;0.70;;;0.40;;
27684;SDS011;46113;50.130;8.526;2022-11-21T10:24:21;0.65;;;0.60;;
27684;SDS011;46113;50.130;8.526;2022-11-21T10:27:02;4.90;;;0.70;;
27684;SDS011;46113;50.130;8.526;2022-11-21T10:29:49;3.67;;;0.65;;
27684;SDS011;46113;50.130;8.526;2022-11-21T10:35:11;2.53;;;0.55;;
27684;SDS011;46113;50.130;8.526;2022-11-21T10:37:59;2.38;;;0.85;;
27684;SDS011;46113;50.130;8.526;2022-11-21T10:40:43;3.58;;;1.23;;
27684;SDS011;46113;50.130;8.526;2022-11-21T10:46:00;2.28;;;0.73;;
27684;SDS011;46113;50.130;8.526;2022-11-21T10:48:27;0.80;;;0.52;;
27684;SDS011;46113;50.130;8.526;2022-11-21T10:53:38;2.35;;;0.80;;
27684;SDS011;46113;50.130;8.526;2022-11-21T10:56:32;3.00;;;0.63;;
27684;SDS011;46113;50.130;8.526;2022-11-21T10:59:01;2.25;;;0.60;;
27684;SDS011;46113;50.130;8.526;2022-11-21T11:01:39;0.90;;;0.40;;
27684;SDS011;46113;50.130;8.526;2022-11-21T11:06:55;2.65;;;0.68;;
27684;SDS011;46113;50.130;8.526;2022-11-21T11:09:32;3.10;;;1.27;;
27684;SDS011;46113;50.130;8.526;2022-11-21T11:14:51;1.90;;;0.88;;
27684;SDS011;46113;50.130;8.526;2022-11-21T11:17:30;3.92;;;0.93;;
27684;SDS011;46113;50.130;8.526;2022-11-21T11:22:55;1.60;;;0.57;;
27684;SDS011;46113;50.130;8.526;2022-11-21T11:25:21;2.42;;;0.65;;
27684;SDS011;46113;50.130;8.526;2022-11-21T11:27:48;3.63;;;0.90;;
27684;SDS011;46113;50.130;8.526;2022-11-21T11:30:18;1.48;;;0.57;;
27684;SDS011;46113;50.130;8.526;2022-11-21T11:32:46;4.15;;;1.10;;
27684;SDS011;46113;50.130;8.526;2022-11-21T11:40:46;2.80;;;0.60;;
27684;SDS011;46113;50.130;8.526;2022-11-21T11:43:20;1.52;;;0.52;;
27684;SDS011;46113;50.130;8.526;2022-11-21T11:49:28;0.32;;;0.32;;
27684;SDS011;46113;50.130;8.526;2022-11-21T11:52:18;1.85;;;0.63;;
27684;SDS011;46113;50.130;8.526;2022-11-21T11:54:51;2.05;;;0.60;;
27684;SDS011;46113;50.130;8.526;2022-11-21T11:57:23;0.40;;;0.40;;
27684;SDS011;46113;50.130;8.526;2022-11-21T12:00:02;3.83;;;0.50;;
27684;SDS011;46113;50.130;8.526;2022-11-21T12:02:51;6.40;;;0.52;;
27684;SDS011;46113;50.130;8.526;2022-11-21T12:05:21;5.38;;;0.88;;
27684;SDS011;46113;50.130;8.526;2022-11-21T12:07:56;1.90;;;0.52;;
27684;SDS011;46113;50.130;8.526;2022-11-21T12:10:50;1.10;;;0.50;;
27684;SDS011;46113;50.130;8.526;2022-11-21T12:17:04;2.42;;;0.70;;
27684;SDS011;46113;50.130;8.526;2022-11-21T12:19:34;1.92;;;0.50;;
27684;SDS011;46113;50.130;8.526;2022-11-21T12:22:02;4.30;;;0.63;;
27684;SDS011;46113;50.130;8.526;2022-11-21T12:24:34;2.00;;;0.60;;
27684;SDS011;46113;50.130;8.526;2022-11-21T12:30:36;4.47;;;0.75;;
27684;SDS011;46113;50.130;8.526;2022-11-21T12:33:51;2.08;;;0.65;;
27684;SDS011;46113;50.130;8.526;2022-11-21T12:36:32;1.08;;;0.60;;
27684;SDS011;46113;50.130;8.526;2022-11-21T12:46:08;1.95;;;0.52;;
27684;SDS011;46113;50.130;8.526;2022-11-21T12:48:25;0.70;;;0.70;;
27684;SDS011;46113;50.130;8.526;2022-11-21T12:51:31;1.73;;;0.55;;
27684;SDS011;46113;50.130;8.526;2022-11-21T13:00:50;2.28;;;0.55;;
27684;SDS011;46113;50.130;8.526;2022-11-21T13:06:25;1.88;;;0.57;;
27684;SDS011;46113;50.130;8.526;2022-11-21T13:08:54;2.78;;;0.57;;
27684;SDS011;46113;50.130;8.526;2022-11-21T13:11:29;4.43;;;0.60;;
27684;SDS011;46113;50.130;8.526;2022-11-21T13:25:52;0.68;;;0.40;;
27684;SDS011;46113;50.130;8.526;2022-11-21T13:30:45;3.05;;;0.60;;
27684;SDS011;46113;50.130;8.526;2022-11-21T13:36:01;1.02;;;0.40;;
27684;SDS011;46113;50.130;8.526;2022-11-21T13:38:31;4.20;;;0.90;;
27684;SDS011;46113;50.130;8.526;2022-11-21T13:49:58;1.75;;;0.35;;
27684;SDS011;46113;50.130;8.526;2022-11-21T13:55:36;0.75;;;0.45;;
27684;SDS011;46113;50.130;8.526;2022-11-21T13:58:13;1.33;;;0.60;;
27684;SDS011;46113;50.130;8.526;2022-11-21T14:09:46;2.47;;;0.45;;
27684;SDS011;46113;50.130;8.526;2022-11-21T14:12:26;4.25;;;0.73;;
27684;SDS011;46113;50.130;8.526;2022-11-21T14:15:17;1.95;;;0.75;;
27684;SDS011;46113;50.130;8.526;2022-11-21T14:17:52;0.73;;;0.60;;
27684;SDS011;46113;50.130;8.526;2022-11-21T14:20:23;8.20;;;1.02;;
27684;SDS011;46113;50.130;8.526;2022-11-21T14:25:41;5.00;;;1.33;;
27684;SDS011;46113;50.130;8.526;2022-11-21T14:28:15;3.42;;;0.70;;
27684;SDS011;46113;50.130;8.526;2022-11-21T14:31:02;4.40;;;1.08;;
27684;SDS011;46113;50.130;8.526;2022-11-21T14:33:37;4.65;;;1.00;;
27684;SDS011;46113;50.130;8.526;2022-11-21T14:38:52;3.13;;;0.85;;
27684;SDS011;46113;50.130;8.526;2022-11-21T14:41:40;1.35;;;0.50;;
27684;SDS011;46113;50.130;8.526;2022-11-21T14:47:14;4.10;;;0.83;;
27684;SDS011;46113;50.130;8.526;2022-11-21T14:49:54;3.88;;;1.15;;
27684;SDS011;46113;50.130;8.526;2022-11-21T14:52:26;5.60;;;1.17;;
27684;SDS011;46113;50.130;8.526;2022-11-21T14:54:57;4.15;;;0.70;;
27684;SDS011;46113;50.130;8.526;2022-11-21T14:57:45;1.90;;;0.63;;
27684;SDS011;46113;50.130;8.526;2022-11-21T15:00:15;3.70;;;1.13;;
27684;SDS011;46113;50.130;8.526;2022-11-21T15:03:14;2.55;;;0.77;;
27684;SDS011;46113;50.130;8.526;2022-11-21T15:05:44;2.60;;;0.80;;
27684;SDS011;46113;50.130;8.526;2022-11-21T15:08:31;4.30;;;1.67;;
27684;SDS011;46113;50.130;8.526;2022-11-21T15:11:18;4.90;;;1.00;;
27684;SDS011;46113;50.130;8.526;2022-11-21T15:13:49;5.43;;;1.55;;
27684;SDS011;46113;50.130;8.526;2022-11-21T15:16:46;5.82;;;1.27;;
27684;SDS011;46113;50.130;8.526;2022-11-21T15:21:51;4.63;;;1.50;;
27684;SDS011;46113;50.130;8.526;2022-11-21T15:38:16;11.00;;;1.52;;
27684;SDS011;46113;50.130;8.526;2022-11-21T15:40:59;12.02;;;3.60;;
27684;SDS011;46113;50.130;8.526;2022-11-21T15:43:43;5.20;;;2.70;;
27684;SDS011;46113;50.130;8.526;2022-11-21T15:46:15;9.25;;;3.05;;
27684;SDS011;46113;50.130;8.526;2022-11-21T15:48:43;8.43;;;2.90;;
27684;SDS011;46113;50.130;8.526;2022-11-21T15:51:12;8.13;;;2.17;;
27684;SDS011;46113;50.130;8.526;2022-11-21T15:53:39;7.20;;;3.88;;
27684;SDS011;46113;50.130;8.526;2022-11-21T15:56:12;7.65;;;3.25;;
27684;SDS011;46113;50.130;8.526;2022-11-21T15:58:48;5.75;;;2.85;;
27684;SDS011;46113;50.130;8.526;2022-11-21T16:01:16;4.97;;;2.92;;
27684;SDS011;46113;50.130;8.526;2022-11-21T16:03:48;8.40;;;4.57;;
27684;SDS011;46113;50.130;8.526;2022-11-21T16:06:32;12.18;;;5.70;;
27684;SDS011;46113;50.130;8.526;2022-11-21T16:09:00;12.10;;;5.00;;
27684;SDS011;46113;50.130;8.526;2022-11-21T16:11:35;10.23;;;4.85;;
27684;SDS011;46113;50.130;8.526;2022-11-21T16:14:04;14.85;;;6.55;;
27684;SDS011;46113;50.130;8.526;2022-11-21T16:16:33;14.20;;;6.07;;
27684;SDS011;46113;50.130;8.526;2022-11-21T16:22:04;9.27;;;3.97;;
27684;SDS011;46113;50.130;8.526;2022-11-21T16:24:30;11.25;;;4.03;;
27684;SDS011;46113;50.130;8.526;2022-11-21T16:26:57;7.30;;;3.28;;
27684;SDS011;46113;50.130;8.526;2022-11-21T16:29:23;7.60;;;3.10;;
27684;SDS011;46113;50.130;8.526;2022-11-21T16:31:50;6.13;;;3.10;;
27684;SDS011;46113;50.130;8.526;2022-11-21T16:34:21;11.43;;;3.13;;
27684;SDS011;46113;50.130;8.526;2022-11-21T16:36:48;5.97;;;2.85;;
27684;SDS011;46113;50.130;8.526;2022-11-21T16:39:16;6.93;;;2.50;;
27684;SDS011;46113;50.130;8.526;2022-11-21T16:41:47;8.43;;;2.88;;
27684;SDS011;46113;50.130;8.526;2022-11-21T16:44:15;7.13;;;2.95;;
27684;SDS011;46113;50.130;8.526;2022-11-21T16:49:44;17.83;;;6.47;;
27684;SDS011;46113;50.130;8.526;2022-11-21T16:52:14;11.18;;;4.95;;
27684;SDS011;46113;50.130;8.526;2022-11-21T16:54:50;7.03;;;3.05;;
27684;SDS011;46113;50.130;8.526;2022-11-21T16:57:28;8.65;;;3.17;;
27684;SDS011;46113;50.130;8.526;2022-11-21T17:06:03;12.80;;;4.40;;
27684;SDS011;46113;50.130;8.526;2022-11-21T17:11:12;10.50;;;4.10;;
27684;SDS011;46113;50.130;8.526;2022-11-21T17:14:39;10.65;;;4.80;;
27684;SDS011;46113;50.130;8.526;2022-11-21T17:17:04;7.78;;;4.22;;
27684;SDS011;46113;50.130;8.526;2022-11-21T17:19:34;7.10;;;4.22;;
27684;SDS011;46113;50.130;8.526;2022-11-21T17:22:00;11.80;;;4.05;;
27684;SDS011;46113;50.130;8.526;2022-11-21T17:24:30;13.40;;;4.65;;
27684;SDS011;46113;50.130;8.526;2022-11-21T17:26:59;14.73;;;5.63;;
27684;SDS011;46113;50.130;8.526;2022-11-21T17:29:29;9.25;;;4.70;;
27684;SDS011;46113;50.130;8.526;2022-11-21T17:31:55;9.43;;;4.45;;
27684;SDS011;46113;50.130;8.526;2022-11-21T17:34:22;10.45;;;5.93;;
27684;SDS011;46113;50.130;8.526;2022-11-21T17:36:57;13.10;;;6.57;;
27684;SDS011;46113;50.130;8.526;2022-11-21T17:39:34;8.68;;;4.50;;
27684;SDS011;46113;50.130;8.526;2022-11-21T17:42:01;10.85;;;5.00;;
27684;SDS011;46113;50.130;8.526;2022-11-21T17:44:29;9.77;;;4.80;;
27684;SDS011;46113;50.130;8.526;2022-11-21T17:46:56;6.78;;;4.03;;
27684;SDS011;46113;50.130;8.526;2022-11-21T17:49:25;11.25;;;4.47;;
27684;SDS011;46113;50.130;8.526;2022-11-21T17:51:52;10.30;;;5.03;;
27684;SDS011;46113;50.130;8.526;2022-11-21T17:54:22;9.57;;;4.32;;
27684;SDS011;46113;50.130;8.526;2022-11-21T17:56:48;8.57;;;3.45;;
27684;SDS011;46113;50.130;8.526;2022-11-21T17:59:22;10.20;;;4.40;;
27684;SDS011;46113;50.130;8.526;2022-11-21T18:01:48;10.95;;;4.15;;
27684;SDS011;46113;50.130;8.526;2022-11-21T18:04:15;5.07;;;3.35;;
27684;SDS011;46113;50.130;8.526;2022-11-21T18:06:43;12.05;;;5.28;;
27684;SDS011;46113;50.130;8.526;2022-11-21T18:09:10;10.90;;;4.20;;
27684;SDS011;46113;50.130;8.526;2022-11-21T18:11:37;10.73;;;4.57;;
27684;SDS011;46113;50.130;8.526;2022-11-21T18:14:06;5.68;;;2.97;;
27684;SDS011;46113;50.130;8.526;2022-11-21T18:16:35;9.25;;;3.78;;
27684;SDS011;46113;50.130;8.526;2022-11-21T18:19:04;10.43;;;5.57;;
27684;SDS011;46113;50.130;8.526;2022-11-21T18:21:33;7.00;;;3.47;;
27684;SDS011;46113;50.130;8.526;2022-11-21T18:24:03;9.13;;;4.78;;
27684;SDS011;46113;50.130;8.526;2022-11-21T18:26:31;10.05;;;3.92;;
27684;SDS011;46113;50.130;8.526;2022-11-21T18:29:03;12.57;;;5.47;;
27684;SDS011;46113;50.130;8.526;2022-11-21T18:31:52;9.90;;;4.22;;
27684;SDS011;46113;50.130;8.526;2022-11-21T18:34:18;10.43;;;3.80;;
27684;SDS011;46113;50.130;8.526;2022-11-21T18:36:45;4.47;;;3.35;;
27684;SDS011;46113;50.130;8.526;2022-11-21T18:39:12;8.98;;;3.90;;
27684;SDS011;46113;50.130;8.526;2022-11-21T18:41:43;13.27;;;5.03;;
27684;SDS011;46113;50.130;8.526;2022-11-21T18:44:11;11.80;;;5.63;;
27684;SDS011;46113;50.130;8.526;2022-11-21T18:46:47;6.50;;;4.35;;
27684;SDS011;46113;50.130;8.526;2022-11-21T18:49:13;14.50;;;5.30;;
27684;SDS011;46113;50.130;8.526;2022-11-21T18:51:40;5.82;;;3.20;;
27684;SDS011;46113;50.130;8.526;2022-11-21T18:54:07;8.95;;;3.78;;
27684;SDS011;46113;50.130;8.526;2022-11-21T18:56:36;6.75;;;3.03;;
27684;SDS011;46113;50.130;8.526;2022-11-21T19:01:36;8.68;;;4.30;;
27684;SDS011;46113;50.130;8.526;2022-11-21T19:04:05;9.32;;;4.53;;
27684;SDS011;46113;50.130;8.526;2022-11-21T19:06:31;12.00;;;5.45;;
27684;SDS011;46113;50.130;8.526;2022-11-21T19:09:00;10.65;;;4.70;;
27684;SDS011;46113;50.130;8.526;2022-11-21T19:11:27;11.27;;;5.55;;
27684;SDS011;46113;50.130;8.526;2022-11-21T19:16:46;13.55;;;5.10;;
27684;SDS011;46113;50.130;8.526;2022-11-21T19:22:06;7.60;;;3.60;;
27684;SDS011;46113;50.130;8.526;2022-11-21T19:24:32;10.82;;;3.55;;
27684;SDS011;46113;50.130;8.526;2022-11-21T19:26:59;8.90;;;4.20;;
27684;SDS011;46113;50.130;8.526;2022-11-21T19:29:25;9.85;;;3.85;;
27684;SDS011;46113;50.130;8.526;2022-11-21T19:31:52;7.47;;;2.70;;
27684;SDS011;46113;50.130;8.526;2022-11-21T19:34:19;7.40;;;3.13;;
27684;SDS011;46113;50.130;8.526;2022-11-21T19:36:46;9.30;;;5.72;;
27684;SDS011;46113;50.130;8.526;2022-11-21T19:39:17;12.25;;;3.78;;
27684;SDS011;46113;50.130;8.526;2022-11-21T19:41:48;9.20;;;3.78;;
27684;SDS011;46113;50.130;8.526;2022-11-21T19:44:15;8.00;;;4.65;;
27684;SDS011;46113;50.130;8.526;2022-11-21T19:46:42;11.00;;;4.47;;
27684;SDS011;46113;50.130;8.526;2022-11-21T19:49:09;12.35;;;5.18;;
27684;SDS011;46113;50.130;8.526;2022-11-21T19:54:08;9.20;;;5.20;;
27684;SDS011;46113;50.130;8.526;2022-11-21T19:56:37;11.63;;;6.05;;
27684;SDS011;46113;50.130;8.526;2022-11-21T19:59:04;4.18;;;2.95;;
27684;SDS011;46113;50.130;8.526;2022-11-21T20:01:40;8.23;;;4.78;;
27684;SDS011;46113;50.130;8.526;2022-11-21T20:04:13;8.93;;;3.63;;
27684;SDS011;46113;50.130;8.526;2022-11-21T20:06:44;7.32;;;2.92;;
27684;SDS011;46113;50.130;8.526;2022-11-21T20:12:10;10.15;;;3.97;;
27684;SDS011;46113;50.130;8.526;2022-11-21T20:14:39;7.00;;;3.17;;
27684;SDS011;46113;50.130;8.526;2022-11-21T20:17:08;5.32;;;2.13;;
27684;SDS011;46113;50.130;8.526;2022-11-21T20:19:35;7.72;;;3.10;;
27684;SDS011;46113;50.130;8.526;2022-11-21T20:22:01;10.35;;;3.28;;
27684;SDS011;46113;50.130;8.526;2022-11-21T20:24:28;11.30;;;3.90;;
27684;SDS011;46113;50.130;8.526;2022-11-21T20:26:55;14.93;;;4.80;;
27684;SDS011;46113;50.130;8.526;2022-11-21T20:32:18;5.88;;;2.65;;
27684;SDS011;46113;50.130;8.526;2022-11-21T20:34:47;10.30;;;5.15;;
27684;SDS011;46113;50.130;8.526;2022-11-21T20:37:13;10.55;;;3.45;;
27684;SDS011;46113;50.130;8.526;2022-11-21T20:39:40;10.93;;;2.88;;
27684;SDS011;46113;50.130;8.526;2022-11-21T20:42:06;5.15;;;2.78;;
27684;SDS011;46113;50.130;8.526;2022-11-21T20:44:33;5.03;;;3.28;;
27684;SDS011;46113;50.130;8.526;2022-11-21T20:47:24;11.15;;;3.00;;
27684;SDS011;46113;50.130;8.526;2022-11-21T20:49:50;13.15;;;4.05;;
27684;SDS011;46113;50.130;8.526;2022-11-21T20:52:18;5.53;;;2.83;;
27684;SDS011;46113;50.130;8.526;2022-11-21T20:55:04;8.10;;;2.67;;
27684;SDS011;46113;50.130;8.526;2022-11-21T20:57:32;4.97;;;2.00;;
27684;SDS011;46113;50.130;8.526;2022-11-21T20:59:58;8.55;;;2.28;;
27684;SDS011;46113;50.130;8.526;2022-11-21T21:02:25;6.55;;;2.35;;
27684;SDS011;46113;50.130;8.526;2022-11-21T21:05:03;12.77;;;2.90;;
27684;SDS011;46113;50.130;8.526;2022-11-21T21:07:36;5.15;;;2.83;;
27684;SDS011;46113;50.130;8.526;2022-11-21T21:10:04;6.28;;;2.67;;
27684;SDS011;46113;50.130;8.526;2022-11-21T21:12:31;9.63;;;3.35;;
27684;SDS011;46113;50.130;8.526;2022-11-21T21:15:09;10.60;;;3.88;;
27684;SDS011;46113;50.130;8.526;2022-11-21T21:17:35;6.82;;;2.45;;
27684;SDS011;46113;50.130;8.526;2022-11-21T21:20:02;5.32;;;2.38;;
27684;SDS011;46113;50.130;8.526;2022-11-21T21:22:29;4.40;;;2.40;;
27684;SDS011;46113;50.130;8.526;2022-11-21T21:24:55;7.47;;;2.80;;
27684;SDS011;46113;50.130;8.526;2022-11-21T21:27:22;8.02;;;3.70;;
27684;SDS011;46113;50.130;8.526;2022-11-21T21:29:49;5.75;;;2.83;;
27684;SDS011;46113;50.130;8.526;2022-11-21T21:32:17;6.55;;;3.58;;
27684;SDS011;46113;50.130;8.526;2022-11-21T21:34:43;5.03;;;2.80;;
27684;SDS011;46113;50.130;8.526;2022-11-21T21:37:11;9.60;;;3.15;;
27684;SDS011;46113;50.130;8.526;2022-11-21T21:39:38;5.50;;;2.80;;
27684;SDS011;46113;50.130;8.526;2022-11-21T21:42:04;10.35;;;2.45;;
27684;SDS011;46113;50.130;8.526;2022-11-21T21:44:31;7.13;;;1.73;;
27684;SDS011;46113;50.130;8.526;2022-11-21T21:49:29;6.15;;;2.60;;
27684;SDS011;46113;50.130;8.526;2022-11-21T21:51:56;8.45;;;3.05;;
27684;SDS011;46113;50.130;8.526;2022-11-21T21:54:23;12.05;;;2.80;;
27684;SDS011;46113;50.130;8.526;2022-11-21T21:56:52;5.95;;;1.98;;
27684;SDS011;46113;50.130;8.526;2022-11-21T21:59:23;5.50;;;1.63;;
27684;SDS011;46113;50.130;8.526;2022-11-21T22:01:53;4.60;;;1.73;;
27684;SDS011;46113;50.130;8.526;2022-11-21T22:04:24;5.38;;;2.33;;
27684;SDS011;46113;50.130;8.526;2022-11-21T22:06:51;5.50;;;1.98;;
27684;SDS011;46113;50.130;8.526;2022-11-21T22:09:18;2.83;;;1.58;;
27684;SDS011;46113;50.130;8.526;2022-11-21T22:11:45;5.90;;;1.75;;
27684;SDS011;46113;50.130;8.526;2022-11-21T22:14:13;6.80;;;1.60;;
27684;SDS011;46113;50.130;8.526;2022-11-21T22:16:41;4.72;;;1.33;;
27684;SDS011;46113;50.130;8.526;2022-11-21T22:19:08;3.15;;;1.92;;
27684;SDS011;46113;50.130;8.526;2022-11-21T22:21:35;3.83;;;1.15;;
27684;SDS011;46113;50.130;8.526;2022-11-21T22:24:03;3.67;;;1.40;;
27684;SDS011;46113;50.130;8.526;2022-11-21T22:26:52;4.82;;;1.60;;
27684;SDS011;46113;50.130;8.526;2022-11-21T22:29:19;3.63;;;1.98;;
27684;SDS011;46113;50.130;8.526;2022-11-21T22:31:45;5.18;;;1.50;;
27684;SDS011;46113;50.130;8.526;2022-11-21T22:34:12;5.38;;;1.38;;
27684;SDS011;46113;50.130;8.526;2022-11-21T22:36:39;7.63;;;1.83;;
27684;SDS011;46113;50.130;8.526;2022-11-21T22:39:06;3.60;;;1.50;;
27684;SDS011;46113;50.130;8.526;2022-11-21T22:41:33;5.43;;;1.55;;
27684;SDS011;46113;50.130;8.526;2022-11-21T22:44:00;3.35;;;1.30;;
27684;SDS011;46113;50.130;8.526;2022-11-21T22:46:27;4.40;;;1.77;;
27684;SDS011;46113;50.130;8.526;2022-11-21T22:48:54;3.78;;;1.85;;
27684;SDS011;46113;50.130;8.526;2022-11-21T22:51:22;3.53;;;1.60;;
27684;SDS011;46113;50.130;8.526;2022-11-21T22:53:51;3.05;;;1.25;;
27684;SDS011;46113;50.130;8.526;2022-11-21T22:56:19;3.13;;;1.58;;
27684;SDS011;46113;50.130;8.526;2022-11-21T22:58:46;5.05;;;1.40;;
